Time;durP1;ratioP1;P1;durP2;ratioP2;P2;SDS_P1;SDS_P2;PMS_P1;PMS_P2;Temp;Humidity;BMP_temperature;BMP_pressure;BME280_temperature;BME280_humidity;BME280_pressure;Samples;Min_cycle;Max_cycle;Signal;HPM_P1;HPM_P2
2022/09/07 00:00:52;;;;;;;7.68;6.95;;;;;;;15.42;85.84;101195.84;2080227;28;32787;-69
2022/09/07 00:01:54;;;;;;;9.32;7.30;;;;;;;15.43;86.01;101194.88;2080259;28;26826;-69
2022/09/07 00:02:59;;;;;;;9.80;7.03;;;;;;;15.42;85.61;101193.16;2080864;28;20131;-69
2022/09/07 00:04:02;;;;;;;8.98;7.20;;;;;;;15.43;85.69;101200.28;2081026;28;20046;-69
2022/09/07 00:05:07;;;;;;;8.50;7.63;;;;;;;15.41;86.05;101191.38;2087384;28;26543;-69
2022/09/07 00:06:11;;;;;;;9.20;7.18;;;;;;;15.41;85.81;101183.28;2088751;28;27088;-68
2022/09/07 00:07:13;;;;;;;8.27;7.30;;;;;;;15.43;85.71;101189.50;2089046;28;21034;-69
2022/09/07 00:08:19;;;;;;;12.13;7.63;;;;;;;15.41;85.60;101183.28;2088776;28;26726;-68
2022/09/07 00:09:21;;;;;;;8.15;7.00;;;;;;;15.41;85.87;101180.56;2088706;28;20883;-69
2022/09/07 00:10:23;;;;;;;8.40;7.57;;;;;;;15.40;85.66;101181.53;2080560;28;27468;-68
2022/09/07 00:11:25;;;;;;;10.20;7.50;;;;;;;15.39;85.82;101175.25;2080359;28;25711;-69
2022/09/07 00:12:27;;;;;;;13.93;7.43;;;;;;;15.38;85.68;101173.50;2080633;28;26298;-69
2022/09/07 00:13:33;;;;;;;8.50;7.30;;;;;;;15.38;86.24;101180.69;2080384;28;27423;-68
2022/09/07 00:14:35;;;;;;;9.23;7.43;;;;;;;15.39;86.28;101175.25;2071438;28;28942;-68
2022/09/07 00:15:40;;;;;;;10.10;7.60;;;;;;;15.38;85.47;101183.38;2073725;28;26404;-69
2022/09/07 00:16:42;;;;;;;9.45;7.20;;;;;;;15.39;86.08;101182.47;2080948;28;22335;-69
2022/09/07 00:17:43;;;;;;;9.32;7.45;;;;;;;15.38;86.23;101187.00;2080656;28;24190;-69
2022/09/07 00:18:45;;;;;;;10.18;7.50;;;;;;;15.38;86.05;101181.59;2080410;28;28558;-69
2022/09/07 00:19:47;;;;;;;8.35;7.55;;;;;;;15.38;86.21;101183.38;2080608;28;20112;-69
2022/09/07 00:21:06;;;;;;;9.85;7.35;;;;;;;15.38;85.76;101178.00;2080565;28;25328;-69
2022/09/07 00:22:07;;;;;;;7.97;7.20;;;;;;;15.37;86.29;101176.25;2079709;28;28511;-69
2022/09/07 00:23:09;;;;;;;9.85;7.57;;;;;;;15.37;85.72;101181.66;2079815;28;27724;-69
2022/09/07 00:24:12;;;;;;;8.85;7.25;;;;;;;15.37;85.79;101178.94;2080044;28;22226;-69
2022/09/07 00:25:14;;;;;;;8.50;7.30;;;;;;;15.35;85.84;101170.91;2082955;28;23988;-69
2022/09/07 00:26:28;;;;;;;10.68;7.40;;;;;;;15.38;86.13;101183.38;2079690;28;22673;-69
2022/09/07 00:27:32;;;;;;;8.85;7.20;;;;;;;15.36;85.86;101183.47;2081851;28;20887;-69
2022/09/07 00:28:37;;;;;;;8.18;7.20;;;;;;;15.36;86.07;101194.28;2087802;28;31534;-69
2022/09/07 00:29:39;;;;;;;11.77;7.53;;;;;;;15.36;85.69;101191.56;2088546;28;28741;-68
2022/09/07 00:30:41;;;;;;;9.70;7.20;;;;;;;15.36;86.15;101186.16;2088290;28;33881;-69
2022/09/07 00:31:43;;;;;;;8.10;7.30;;;;;;;15.35;86.30;101187.09;2078879;28;28646;-69
2022/09/07 00:32:45;;;;;;;9.55;7.32;;;;;;;15.37;86.14;101190.63;2080010;28;26145;-69
2022/09/07 00:33:49;;;;;;;9.50;7.97;;;;;;;15.35;85.96;101189.78;2088859;28;31098;-69
2022/09/07 00:34:51;;;;;;;8.75;7.50;;;;;;;15.35;86.02;101194.31;2089124;28;20034;-69
2022/09/07 00:35:53;;;;;;;8.80;7.20;;;;;;;15.34;86.14;101184.47;2089185;28;20122;-69
2022/09/07 00:36:57;;;;;;;13.70;7.57;;;;;;;15.33;86.09;101188.97;2088362;28;28874;-69
2022/09/07 00:37:59;;;;;;;7.50;6.75;;;;;;;15.34;86.34;101181.75;2088045;28;24932;-69
2022/09/07 00:39:01;;;;;;;7.90;7.10;;;;;;;15.32;86.22;101189.03;2088394;28;21587;-69
2022/09/07 00:40:04;;;;;;;9.32;7.53;;;;;;;15.33;86.31;101190.81;2079673;28;22395;-69
2022/09/07 00:41:07;;;;;;;11.02;7.57;;;;;;;15.34;86.21;101184.47;2078975;28;24792;-68
2022/09/07 00:42:08;;;;;;;10.00;7.70;;;;;;;15.33;86.47;101177.31;2079675;28;31584;-69
2022/09/07 00:43:51;;;;;;;10.73;7.20;;;;;;;15.33;86.02;101177.31;2079835;28;20088;-68
2022/09/07 00:45:19;;;;;;;7.90;6.85;;;;;;;15.32;86.62;101180.94;2046415;28;33144;-69
2022/09/07 00:46:33;;;;;;;8.10;7.30;;;;;;;15.31;86.18;101181.88;2082204;28;23901;-69
2022/09/07 00:47:55;;;;;;;8.57;7.75;;;;;;;15.30;86.35;101181.00;2088262;28;33387;-68
2022/09/07 00:49:11;;;;;;;10.23;6.93;;;;;;;15.31;86.31;101177.38;2080384;28;20802;-69
2022/09/07 00:50:49;;;;;;;10.50;7.38;;;;;;;15.34;86.46;101177.22;2076665;28;28616;-69
2022/09/07 00:51:56;;;;;;;9.27;7.68;;;;;;;15.35;86.11;101161.94;2071553;28;20151;-69
2022/09/07 00:53:10;;;;;;;9.00;7.60;;;;;;;15.37;86.23;101163.63;2077616;28;26456;-69
2022/09/07 00:54:21;;;;;;;9.48;8.40;;;;;;;15.37;86.26;101168.16;2071843;28;24973;-69
2022/09/07 00:55:23;;;;;;;10.35;7.15;;;;;;;15.39;86.18;101166.28;2075746;28;24703;-69
2022/09/07 00:56:31;;;;;;;9.38;7.03;;;;;;;15.40;86.01;101168.91;2080106;28;32956;-69
2022/09/07 00:57:35;;;;;;;8.10;7.18;;;;;;;15.40;86.03;101170.75;2080266;28;29859;-69
2022/09/07 00:58:41;;;;;;;10.90;7.70;;;;;;;15.39;86.11;101168.97;2080147;28;20119;-69
2022/09/07 00:59:48;;;;;;;8.82;7.45;;;;;;;15.40;85.69;101168.91;2078712;28;29955;-69
2022/09/07 01:00:50;;;;;;;10.07;7.32;;;;;;;15.40;85.60;101165.34;2079598;28;29456;-69
2022/09/07 01:01:52;;;;;;;8.38;7.18;;;;;;;15.40;85.84;101165.34;2078481;28;31926;-69
2022/09/07 01:02:56;;;;;;;8.48;7.30;;;;;;;15.40;86.12;101162.66;2080081;28;20038;-69
2022/09/07 01:04:00;;;;;;;12.75;7.80;;;;;;;15.41;85.62;101159.00;2079602;28;33045;-67
2022/09/07 01:05:36;;;;;;;11.65;6.93;;;;;;;15.42;85.46;101160.75;2080173;28;20045;-69
2022/09/07 01:06:42;;;;;;;9.05;7.15;;;;;;;15.42;86.14;101163.47;2076115;28;26403;-69
2022/09/07 01:07:44;;;;;;;8.30;6.88;;;;;;;15.40;85.77;101158.13;2080406;28;26922;-68
2022/09/07 01:08:48;;;;;;;12.93;7.30;;;;;;;15.39;86.11;101158.19;2079288;28;29873;-68
2022/09/07 01:09:54;;;;;;;9.93;6.97;;;;;;;15.41;85.90;101165.25;2079781;28;29136;-69
2022/09/07 01:10:58;;;;;;;10.68;7.07;;;;;;;15.43;85.86;101162.50;2088253;28;28381;-68
2022/09/07 01:12:04;;;;;;;7.82;7.03;;;;;;;15.42;85.73;101158.94;2088303;28;20037;-69
2022/09/07 01:13:07;;;;;;;7.82;7.00;;;;;;;15.41;86.26;101156.28;2079036;28;20081;-69
2022/09/07 01:14:12;;;;;;;9.98;6.97;;;;;;;15.41;86.01;101149.06;2079098;28;32445;-69
2022/09/07 01:15:14;;;;;;;11.88;7.80;;;;;;;15.41;86.11;101157.16;2079618;28;30960;-69
2022/09/07 01:16:45;;;;;;;10.45;7.32;;;;;;;15.41;86.33;101161.69;2071213;28;22535;-69
2022/09/07 01:18:35;;;;;;;7.97;7.20;;;;;;;15.41;86.22;101153.59;2084046;28;29357;-69
2022/09/07 01:20:17;;;;;;;8.55;7.22;;;;;;;15.40;86.08;101151.84;2081007;28;29030;-69
2022/09/07 01:21:24;;;;;;;9.13;7.10;;;;;;;15.42;86.18;101160.75;2079417;28;31762;-69
2022/09/07 01:22:57;;;;;;;9.75;7.15;;;;;;;15.40;86.30;101157.25;2085218;28;26689;-69
2022/09/07 01:24:17;;;;;;;9.93;7.30;;;;;;;15.41;85.85;101159.00;2079989;28;27437;-69
2022/09/07 01:25:41;;;;;;;9.18;7.22;;;;;;;15.41;86.01;101159.00;2079189;28;20038;-69
2022/09/07 01:27:23;;;;;;;9.05;7.03;;;;;;;15.41;86.16;101162.56;2071143;28;31493;-69
2022/09/07 01:28:49;;;;;;;11.77;7.03;;;;;;;15.39;86.04;101156.34;2087134;28;23037;-69
2022/09/07 01:30:11;;;;;;;10.80;7.40;;;;;;;15.37;85.53;101149.28;2073818;28;27022;-69
2022/09/07 01:31:54;;;;;;;9.07;7.38;;;;;;;15.39;86.00;101155.47;2078698;28;30059;-69
2022/09/07 01:33:10;;;;;;;8.38;7.53;;;;;;;15.39;85.99;101155.47;2088552;28;20861;-69
2022/09/07 01:34:22;;;;;;;8.13;7.32;;;;;;;15.38;86.28;101165.41;2079811;28;25272;-69
2022/09/07 01:35:44;;;;;;;10.93;7.13;;;;;;;15.37;86.08;101169.03;2081894;28;27873;-69
2022/09/07 01:37:15;;;;;;;7.75;7.00;;;;;;;15.36;86.06;101156.50;2088211;28;25956;-69
2022/09/07 01:38:40;;;;;;;8.60;7.18;;;;;;;15.37;85.87;101162.75;2079965;28;23669;-70
2022/09/07 01:39:58;;;;;;;7.60;6.85;;;;;;;15.36;86.24;101161.00;2086337;28;28061;-69
2022/09/07 01:41:26;;;;;;;7.97;7.18;;;;;;;15.34;86.23;101152.09;2079777;28;24555;-68
2022/09/07 01:42:37;;;;;;;8.88;7.00;;;;;;;15.34;86.26;101152.09;2075126;28;29676;-69
2022/09/07 01:43:53;;;;;;;10.68;7.15;;;;;;;15.34;86.18;101154.78;2074656;28;22863;-69
2022/09/07 01:45:00;;;;;;;8.20;7.20;;;;;;;15.34;86.12;101165.56;2073990;28;31611;-69
2022/09/07 01:46:15;;;;;;;8.05;6.93;;;;;;;15.35;86.53;101159.25;2070696;28;30735;-69
2022/09/07 01:47:34;;;;;;;7.50;6.50;;;;;;;15.35;86.46;101167.34;2064804;28;33195;-69
2022/09/07 01:48:39;;;;;;;7.65;6.78;;;;;;;15.34;86.12;101158.34;2075839;28;29852;-69
2022/09/07 01:50:00;;;;;;;8.55;7.47;;;;;;;15.34;86.10;101161.03;2070705;28;31330;-69
2022/09/07 01:51:03;;;;;;;9.52;7.25;;;;;;;15.34;86.25;101155.66;2075138;28;21678;-69
2022/09/07 01:52:14;;;;;;;8.65;7.45;;;;;;;15.34;86.38;101157.47;2070923;28;20132;-70
2022/09/07 01:53:24;;;;;;;7.80;7.00;;;;;;;15.35;86.43;101148.47;2069594;28;29300;-69
2022/09/07 01:54:33;;;;;;;8.68;7.22;;;;;;;15.34;86.25;101146.69;2064248;28;32397;-69
2022/09/07 01:55:59;;;;;;;8.82;7.05;;;;;;;15.36;86.57;101142.09;2064521;28;32841;-69
2022/09/07 01:57:13;;;;;;;8.63;7.05;;;;;;;15.36;86.13;101145.72;2065947;28;29709;-69
2022/09/07 01:58:43;;;;;;;9.15;7.88;;;;;;;15.36;86.86;101140.31;2071667;28;20176;-69
2022/09/07 02:00:00;;;;;;;8.07;7.20;;;;;;;15.36;86.63;101128.63;2066468;28;26388;-69
2022/09/07 02:01:12;;;;;;;9.65;7.53;;;;;;;15.37;86.74;101133.09;2077066;28;24595;-69
2022/09/07 02:02:28;;;;;;;11.63;7.85;;;;;;;15.36;86.74;101124.13;2071080;28;25692;-69
2022/09/07 02:03:37;;;;;;;8.55;7.30;;;;;;;15.38;86.45;101124.03;2074504;28;25771;-69
2022/09/07 02:04:52;;;;;;;8.82;7.40;;;;;;;15.36;86.84;101128.63;2070344;28;22608;-69
2022/09/07 02:06:15;;;;;;;9.63;7.70;;;;;;;15.35;86.48;101121.47;2058196;28;20050;-69
2022/09/07 02:07:28;;;;;;;10.35;7.40;;;;;;;15.35;86.14;101116.09;2070879;28;26160;-69
2022/09/07 02:08:42;;;;;;;8.70;6.85;;;;;;;15.34;86.94;101112.47;2070956;28;20046;-69
2022/09/07 02:09:57;;;;;;;8.30;7.25;;;;;;;15.33;86.46;101120.66;2072675;28;30226;-69
2022/09/07 02:11:24;;;;;;;8.10;6.90;;;;;;;15.31;87.02;101115.31;2088449;28;22121;-68
2022/09/07 02:12:46;;;;;;;11.38;7.78;;;;;;;15.33;86.63;101113.44;2078847;28;30798;-69
2022/09/07 02:13:58;;;;;;;8.48;7.20;;;;;;;15.33;87.00;101117.97;2074593;28;32408;-69
2022/09/07 02:15:06;;;;;;;9.57;7.55;;;;;;;15.30;86.42;101113.56;2075251;28;25680;-69
2022/09/07 02:16:15;;;;;;;10.82;7.68;;;;;;;15.30;86.73;101112.69;2076433;28;27882;-69
2022/09/07 02:17:28;;;;;;;8.60;7.72;;;;;;;15.30;86.80;101107.28;2073342;28;20105;-68
2022/09/07 02:18:38;;;;;;;8.38;7.32;;;;;;;15.29;86.96;101109.13;2071094;28;29045;-69
2022/09/07 02:19:58;;;;;;;9.93;7.78;;;;;;;15.28;87.03;101110.03;2073670;28;20050;-69
2022/09/07 02:21:03;;;;;;;8.20;7.18;;;;;;;15.29;87.52;101106.41;2071370;28;29609;-69
2022/09/07 02:22:15;;;;;;;9.05;7.47;;;;;;;15.29;86.91;101106.41;2079147;28;20097;-69
2022/09/07 02:23:26;;;;;;;9.57;7.63;;;;;;;15.28;87.16;101110.91;2079066;28;31218;-69
2022/09/07 02:24:36;;;;;;;8.38;7.57;;;;;;;15.27;86.96;101117.25;2079327;28;30483;-69
2022/09/07 02:25:44;;;;;;;12.90;8.23;;;;;;;15.30;86.78;101124.34;2071861;28;20104;-69
2022/09/07 02:26:49;;;;;;;10.48;7.65;;;;;;;15.30;86.79;101120.78;2072502;28;33390;-69
2022/09/07 02:28:03;;;;;;;10.80;7.70;;;;;;;15.30;86.72;101127.03;2078708;28;29360;-69
2022/09/07 02:29:05;;;;;;;10.68;7.53;;;;;;;15.30;87.13;101126.16;2079512;28;20030;-69
2022/09/07 02:30:08;;;;;;;9.23;7.07;;;;;;;15.31;86.51;101145.00;2079448;28;28691;-69
2022/09/07 02:31:10;;;;;;;7.57;6.88;;;;;;;15.31;86.90;101153.09;2079933;28;20046;-69
2022/09/07 02:32:12;;;;;;;11.13;7.38;;;;;;;15.31;87.19;101173.78;2079564;28;25963;-69
2022/09/07 02:33:16;;;;;;;8.68;7.10;;;;;;;15.32;87.18;101206.09;2079564;28;20042;-69
2022/09/07 02:34:18;;;;;;;7.75;6.90;;;;;;;15.37;87.03;101284.19;2079708;28;27764;-69
2022/09/07 02:35:20;;;;;;;8.98;7.43;;;;;;;15.39;87.55;101285.00;2078797;28;23484;-69
2022/09/07 02:36:26;;;;;;;8.43;7.13;;;;;;;15.44;86.94;101286.56;2079918;28;20205;-69
2022/09/07 02:37:29;;;;;;;9.43;7.30;;;;;;;15.46;86.91;101268.50;2079669;28;20069;-69
2022/09/07 02:38:33;;;;;;;9.82;7.80;;;;;;;15.51;86.91;101268.34;2079472;28;30823;-69
2022/09/07 02:39:34;;;;;;;8.60;7.18;;;;;;;15.53;86.54;101260.19;2088261;28;20969;-69
2022/09/07 02:40:37;;;;;;;8.07;6.80;;;;;;;15.54;86.50;101265.53;2078904;28;31739;-69
2022/09/07 02:41:44;;;;;;;7.95;6.75;;;;;;;15.58;85.82;101259.06;2078736;28;23890;-68
2022/09/07 02:42:47;;;;;;;7.60;6.40;;;;;;;15.62;85.45;101252.59;2087521;28;24212;-69
2022/09/07 02:43:49;;;;;;;8.00;6.47;;;;;;;15.64;85.56;101237.22;2079150;28;22481;-68
2022/09/07 02:44:51;;;;;;;8.43;6.72;;;;;;;15.64;85.61;101242.63;2071299;28;24713;-69
2022/09/07 02:46:31;;;;;;;8.68;6.30;;;;;;;15.65;85.66;101239.00;2079460;28;20096;-68
2022/09/07 02:47:51;;;;;;;7.20;5.82;;;;;;;15.68;85.59;101237.13;2086681;28;27729;-69
2022/09/07 02:49:32;;;;;;;8.02;7.22;;;;;;;15.69;85.95;101233.50;2079870;28;20039;-68
2022/09/07 02:51:04;;;;;;;;;;;;;;;15.71;85.15;101237.88;2085212;28;33606;-69
2022/09/07 02:52:28;;;;;;;12.38;6.75;;;;;;;15.70;86.32;101230.69;2088020;28;19991;-69
2022/09/07 02:53:57;;;;;;;7.57;6.40;;;;;;;15.70;85.87;101238.78;2079349;28;29231;-68
2022/09/07 02:55:42;;;;;;;9.13;7.20;;;;;;;15.69;86.22;101233.50;2085431;28;26619;-69
2022/09/07 02:57:41;;;;;;;7.90;7.10;;;;;;;15.68;86.72;101224.47;2087955;28;21622;-70
2022/09/07 02:59:40;;;;;;;8.43;6.88;;;;;;;15.65;87.07;101233.59;2067612;28;23353;-69
2022/09/07 03:01:18;;;;;;;9.48;7.22;;;;;;;15.66;88.00;101229.94;2087017;28;32743;-70
2022/09/07 03:02:35;;;;;;;11.02;7.97;;;;;;;15.65;89.18;101233.59;2087493;28;25354;-70
2022/09/07 03:03:43;;;;;;;9.65;8.65;;;;;;;15.64;88.99;101237.22;2088570;28;20912;-70
2022/09/07 03:04:53;;;;;;;8.90;8.00;;;;;;;15.65;89.51;101236.28;2088015;28;24036;-71
2022/09/07 03:06:03;;;;;;;9.57;7.28;;;;;;;15.65;89.20;101228.19;2087768;28;30429;-70
2022/09/07 03:07:14;;;;;;;8.68;7.47;;;;;;;15.64;90.11;101222.84;2079030;28;27280;-71
2022/09/07 03:08:26;;;;;;;9.63;8.10;;;;;;;15.64;89.80;101225.56;2081432;28;27144;-72
2022/09/07 03:09:35;;;;;;;8.40;7.60;;;;;;;15.62;89.76;101232.84;2079558;28;20049;-73
2022/09/07 03:10:39;;;;;;;12.95;8.57;;;;;;;15.56;90.91;101222.25;2080162;28;30190;-73
2022/09/07 03:11:41;;;;;;;17.50;10.02;;;;;;;15.50;92.67;101220.69;2078961;28;26292;-74
2022/09/07 03:12:48;;;;;;;10.75;9.07;;;;;;;15.44;93.97;101219.13;2071740;28;20340;-73
2022/09/07 03:13:50;;;;;;;11.80;9.88;;;;;;;15.38;94.15;101218.47;2079767;28;30530;-74
2022/09/07 03:14:52;;;;;;;11.27;10.07;;;;;;;15.31;94.53;101212.44;2078607;28;27788;-73
2022/09/07 03:15:55;;;;;;;14.18;10.88;;;;;;;15.30;96.39;101213.38;2079537;28;29867;-74
2022/09/07 03:16:57;;;;;;;11.55;10.32;;;;;;;15.19;96.12;101208.38;2079584;28;29668;-75
2022/09/07 03:17:59;;;;;;;12.65;11.35;;;;;;;15.17;97.98;101210.25;2070861;28;27779;-76
2022/09/07 03:19:01;;;;;;;12.45;10.93;;;;;;;15.10;97.14;101207.88;2070969;28;24673;-76
2022/09/07 03:20:03;;;;;;;12.93;11.73;;;;;;;15.04;98.03;101204.47;2085248;28;29029;-77
2022/09/07 03:21:05;;;;;;;13.23;11.48;;;;;;;15.01;98.75;101193.78;2087550;28;32224;-77
2022/09/07 03:22:07;;;;;;;13.38;11.77;;;;;;;15.03;99.20;101191.03;2087642;28;30486;-78
2022/09/07 03:23:09;;;;;;;16.15;11.98;;;;;;;15.04;99.32;101196.38;2088858;28;29109;-78
2022/09/07 03:24:10;;;;;;;12.98;11.68;;;;;;;15.00;100.00;101193.81;2089419;28;23148;-77
2022/09/07 03:25:13;;;;;;;14.13;12.68;;;;;;;14.93;100.00;101184.22;2088670;28;20049;-76
2022/09/07 03:26:24;;;;;;;14.52;13.00;;;;;;;14.95;100.00;101183.22;2080402;28;29188;-76
2022/09/07 03:27:26;;;;;;;15.88;13.70;;;;;;;14.99;100.00;101175.91;2082410;28;20124;-77
2022/09/07 03:28:30;;;;;;;14.73;13.40;;;;;;;14.92;100.00;101177.94;2088844;28;24489;-79
2022/09/07 03:29:32;;;;;;;15.95;14.38;;;;;;;14.87;100.00;101175.41;2089065;28;28322;-78
2022/09/07 03:30:34;;;;;;;16.88;15.23;;;;;;;14.91;100.00;101161.81;2089013;28;29645;-78
2022/09/07 03:31:36;;;;;;;15.25;13.68;;;;;;;14.87;100.00;101163.75;2079124;28;28727;-78
2022/09/07 03:32:38;;;;;;;15.82;14.18;;;;;;;14.85;100.00;101163.81;2080018;28;22728;-79
2022/09/07 03:33:40;;;;;;;15.98;14.52;;;;;;;14.83;100.00;101151.34;2080432;28;20165;-81
2022/09/07 03:34:42;;;;;;;16.63;15.05;;;;;;;14.85;100.00;101149.47;2080583;28;25915;-83
2022/09/07 03:35:58;;;;;;;16.75;15.10;;;;;;;14.87;100.00;101147.56;2089115;28;21955;-82
2022/09/07 03:37:00;;;;;;;18.00;16.20;;;;;;;14.83;100.00;101151.34;2088742;28;23050;-84
2022/09/07 03:38:02;;;;;;;18.65;16.25;;;;;;;14.83;100.00;101140.56;2088667;28;27267;-83
2022/09/07 03:39:06;;;;;;;17.95;16.23;;;;;;;14.82;100.00;101147.78;2089126;28;24411;-82
2022/09/07 03:40:11;;;;;;;19.00;17.02;;;;;;;14.86;100.00;101133.22;2089294;28;30210;-83
2022/09/07 03:41:13;;;;;;;17.75;15.85;;;;;;;14.89;100.00;101124.13;2088437;28;25380;-83
2022/09/07 03:42:15;;;;;;;17.38;15.77;;;;;;;14.88;100.00;101134.03;2088538;28;26536;-82
2022/09/07 03:43:17;;;;;;;19.70;17.58;;;;;;;14.89;100.00;101126.81;2080351;28;24644;-82
2022/09/07 03:44:18;;;;;;;18.33;16.45;;;;;;;14.85;100.00;101120.66;2080750;28;32272;-82
2022/09/07 03:45:20;;;;;;;17.25;15.63;;;;;;;14.88;100.00;101123.25;2080772;28;30350;-82
2022/09/07 03:46:22;;;;;;;19.35;17.35;;;;;;;14.89;100.00;101121.44;2080249;28;33173;-82
2022/09/07 03:47:24;;;;;;;18.88;17.15;;;;;;;14.85;100.00;101126.06;2080830;28;21800;-81
2022/09/07 03:48:29;;;;;;;19.77;17.90;;;;;;;14.89;100.00;101130.44;2081433;28;20092;-81
2022/09/07 03:49:34;;;;;;;20.50;18.45;;;;;;;14.87;100.00;101132.28;2081441;28;20065;-81
2022/09/07 03:50:35;;;;;;;18.85;17.20;;;;;;;14.87;100.00;101131.41;2088709;28;25320;-81
2022/09/07 03:51:37;;;;;;;20.25;18.10;;;;;;;14.88;100.00;101122.41;2088750;28;22408;-82
2022/09/07 03:52:41;;;;;;;21.00;18.88;;;;;;;14.87;100.00;101126.88;2089099;28;32799;-81
2022/09/07 03:53:46;;;;;;;21.88;19.60;;;;;;;14.89;100.00;101134.91;2088795;28;28562;-81
2022/09/07 03:54:47;;;;;;;20.25;17.98;;;;;;;14.88;100.00;101127.78;2089170;28;27305;-82
2022/09/07 03:56:03;;;;;;;22.42;17.85;;;;;;;14.85;100.00;101141.38;2080292;28;23631;-82
2022/09/07 03:57:04;;;;;;;19.90;17.92;;;;;;;14.85;100.00;101134.16;2082286;28;23400;-82
2022/09/07 03:58:06;;;;;;;20.77;18.48;;;;;;;14.86;100.00;101138.63;2080186;28;31967;-82
2022/09/07 03:59:08;;;;;;;22.75;20.45;;;;;;;14.85;100.00;101144.06;2080950;28;29106;-81
2022/09/07 04:00:14;;;;;;;20.67;18.58;;;;;;;14.85;100.00;101149.47;2080739;28;26081;-82
2022/09/07 04:01:21;;;;;;;20.10;18.23;;;;;;;14.84;100.00;101148.59;2080998;28;27589;-82
2022/09/07 04:02:23;;;;;;;22.08;19.75;;;;;;;14.85;100.00;101149.47;2081118;28;29161;-83
2022/09/07 04:03:25;;;;;;;21.60;19.27;;;;;;;14.85;100.00;101146.75;2085381;28;20045;-83
2022/09/07 04:04:27;;;;;;;21.58;18.05;;;;;;;14.84;100.00;101148.59;2080230;28;24640;-83
2022/09/07 04:05:31;;;;;;;22.00;19.75;;;;;;;14.83;100.00;101163.00;2080506;28;29644;-83
2022/09/07 04:06:33;;;;;;;22.80;20.70;;;;;;;14.82;100.00;101158.56;2079961;28;28049;-83
2022/09/07 04:07:34;;;;;;;22.40;20.20;;;;;;;14.83;100.00;101160.28;2081437;28;20070;-83
2022/09/07 04:08:39;;;;;;;20.92;18.83;;;;;;;14.82;100.00;101166.63;2088527;28;30917;-83
2022/09/07 04:09:40;;;;;;;23.77;20.63;;;;;;;14.81;100.00;101169.38;2089125;28;22205;-83
2022/09/07 04:10:43;;;;;;;20.65;18.55;;;;;;;14.79;100.00;101166.75;2088161;28;23079;-83
2022/09/07 04:11:45;;;;;;;22.83;20.38;;;;;;;14.79;100.00;101161.34;2088447;28;31225;-83
2022/09/07 04:12:46;;;;;;;26.90;19.98;;;;;;;14.78;100.00;101169.50;2088725;28;23491;-83
2022/09/07 04:13:48;;;;;;;21.58;19.08;;;;;;;14.77;100.00;101157.84;2089688;28;20255;-83
2022/09/07 04:14:50;;;;;;;23.75;20.13;;;;;;;14.78;100.00;101162.28;2088448;28;32964;-83
2022/09/07 04:15:53;;;;;;;22.02;19.70;;;;;;;14.78;100.00;101164.09;2088652;28;29386;-82
2022/09/07 04:16:55;;;;;;;22.63;20.33;;;;;;;14.78;100.00;101164.97;2079720;28;27228;-83
2022/09/07 04:17:57;;;;;;;22.02;19.70;;;;;;;14.79;100.00;101157.78;2080662;28;22522;-83
2022/09/07 04:18:59;;;;;;;22.63;20.35;;;;;;;14.75;100.00;101159.72;2088646;28;28401;-83
2022/09/07 04:20:03;;;;;;;24.65;22.05;;;;;;;14.76;100.00;101155.19;2089127;28;20986;-83
2022/09/07 04:21:05;;;;;;;22.83;20.48;;;;;;;14.74;100.00;101152.56;2088543;28;26034;-83
2022/09/07 04:22:07;;;;;;;21.67;19.55;;;;;;;14.75;100.00;101150.72;2089292;28;20908;-82
2022/09/07 04:23:12;;;;;;;22.50;20.20;;;;;;;14.74;100.00;101151.69;2088777;28;25812;-82
2022/09/07 04:24:16;;;;;;;22.80;20.38;;;;;;;14.74;100.00;101138.22;2090240;28;20116;-81
2022/09/07 04:25:19;;;;;;;22.55;19.80;;;;;;;14.73;100.00;101140.00;2087850;28;28348;-81
2022/09/07 04:26:24;;;;;;;23.05;20.50;;;;;;;14.74;100.00;101141.78;2080122;28;23429;-80
2022/09/07 04:27:26;;;;;;;23.75;21.42;;;;;;;14.76;100.00;101149.81;2080940;28;20057;-80
2022/09/07 04:28:28;;;;;;;23.23;20.85;;;;;;;14.76;100.00;101147.97;2079829;28;32980;-79
2022/09/07 04:29:29;;;;;;;22.83;20.10;;;;;;;14.77;100.00;101149.75;2079825;28;20054;-79
2022/09/07 04:30:34;;;;;;;23.27;20.88;;;;;;;14.74;100.00;101139.06;2079088;28;30309;-79
2022/09/07 04:31:36;;;;;;;22.70;20.33;;;;;;;14.74;100.00;101143.59;2071652;28;20109;-80
2022/09/07 04:32:38;;;;;;;20.48;18.40;;;;;;;14.73;100.00;101134.59;2072415;28;29720;-79
2022/09/07 04:33:41;;;;;;;20.88;18.55;;;;;;;14.70;100.00;101145.53;2079484;28;27255;-80
2022/09/07 04:34:45;;;;;;;20.85;18.50;;;;;;;14.70;100.00;101141.00;2080203;28;20863;-80
2022/09/07 04:35:47;;;;;;;20.73;18.73;;;;;;;14.69;100.00;101133.84;2079826;28;31951;-80
2022/09/07 04:36:49;;;;;;;22.00;19.83;;;;;;;14.70;100.00;101134.75;2084485;28;20049;-80
2022/09/07 04:37:51;;;;;;;22.65;20.55;;;;;;;14.70;100.00;101143.69;2088801;28;20046;-80
2022/09/07 04:38:59;;;;;;;21.23;19.02;;;;;;;14.70;100.00;101145.53;2088816;28;28060;-80
2022/09/07 04:40:01;;;;;;;21.58;19.38;;;;;;;14.68;100.00;101139.31;2088544;28;30491;-80
2022/09/07 04:41:11;;;;;;;21.95;19.65;;;;;;;14.67;100.00;101141.09;2080150;28;29805;-80
2022/09/07 04:42:13;;;;;;;19.65;17.77;;;;;;;14.65;100.00;101147.50;2081417;28;23200;-80
2022/09/07 04:43:16;;;;;;;20.52;18.42;;;;;;;14.65;100.00;101148.38;2088365;28;29701;-80
2022/09/07 04:44:18;;;;;;;20.05;17.90;;;;;;;14.65;100.00;101148.38;2088031;28;20118;-80
2022/09/07 04:45:20;;;;;;;20.05;18.05;;;;;;;14.65;100.00;101147.50;2080070;28;26953;-80
2022/09/07 04:46:30;;;;;;;19.45;17.55;;;;;;;14.63;100.00;101152.06;2079946;28;28810;-80
2022/09/07 04:47:31;;;;;;;19.45;17.67;;;;;;;14.62;100.00;101153.88;2089263;28;23620;-79
2022/09/07 04:48:33;;;;;;;20.45;17.65;;;;;;;14.63;100.00;101161.03;2088966;28;20783;-78
2022/09/07 04:49:36;;;;;;;20.83;18.73;;;;;;;14.65;100.00;101155.59;2088123;28;30812;-78
2022/09/07 04:50:38;;;;;;;22.00;19.17;;;;;;;14.65;100.00;101153.75;2088182;28;24504;-77
2022/09/07 04:51:41;;;;;;;19.63;17.75;;;;;;;14.67;100.00;101167.19;2079809;28;23828;-76
2022/09/07 04:52:46;;;;;;;22.13;19.08;;;;;;;14.66;100.00;101157.34;2080477;28;20037;-77
2022/09/07 04:53:50;;;;;;;21.17;17.67;;;;;;;14.65;100.00;101160.97;2079705;28;32030;-76
2022/09/07 04:54:52;;;;;;;21.30;19.05;;;;;;;14.66;100.00;101150.16;2079539;28;27924;-73
2022/09/07 04:55:56;;;;;;;21.40;19.10;;;;;;;14.66;100.00;101143.84;2071574;28;24631;-72
2022/09/07 04:56:58;;;;;;;24.65;18.73;;;;;;;14.66;100.00;101133.06;2071891;28;23693;-73
2022/09/07 04:57:59;;;;;;;20.15;18.15;;;;;;;14.64;100.00;101125.06;2080112;28;21009;-72
2022/09/07 04:59:02;;;;;;;21.80;18.98;;;;;;;14.65;100.00;101123.25;2079720;28;24349;-72
2022/09/07 05:00:15;;;;;;;20.02;17.92;;;;;;;14.65;100.00;101125.94;2080293;28;28466;-73
2022/09/07 05:01:22;;;;;;;21.60;19.38;;;;;;;14.64;100.00;101116.09;2083423;28;21103;-73
2022/09/07 05:02:24;;;;;;;24.00;20.10;;;;;;;14.64;100.00;101132.25;2079804;28;27230;-73
2022/09/07 05:03:27;;;;;;;19.85;17.92;;;;;;;14.64;100.00;101134.94;2079975;28;29423;-74
2022/09/07 05:04:29;;;;;;;20.83;18.73;;;;;;;14.64;100.00;101145.72;2088262;28;28359;-74
2022/09/07 05:05:35;;;;;;;20.55;18.23;;;;;;;14.63;100.00;101149.38;2088373;28;28894;-74
2022/09/07 05:06:40;;;;;;;20.98;18.88;;;;;;;14.65;100.00;101150.19;2079594;28;25140;-73
2022/09/07 05:07:42;;;;;;;20.52;18.33;;;;;;;14.63;100.00;101147.56;2081218;28;20942;-73
2022/09/07 05:08:47;;;;;;;22.25;20.13;;;;;;;14.63;100.00;101154.78;2088410;28;28059;-75
2022/09/07 05:09:51;;;;;;;21.40;19.30;;;;;;;14.63;100.00;101160.16;2080115;28;26628;-74
2022/09/07 05:10:54;;;;;;;22.13;19.95;;;;;;;14.60;100.00;101149.47;2080710;28;20046;-74
2022/09/07 05:11:56;;;;;;;22.13;19.77;;;;;;;14.60;100.00;101160.25;2088809;28;25158;-76
2022/09/07 05:12:59;;;;;;;20.58;18.40;;;;;;;14.58;100.00;101154.06;2087627;28;30798;-75
2022/09/07 05:14:02;;;;;;;20.52;18.52;;;;;;;14.60;100.00;101160.25;2088113;28;31599;-76